Time;durP1;ratioP1;P1;durP2;ratioP2;P2;SDS_P1;SDS_P2;PMS_P1;PMS_P2;Temp;Humidity;BMP_temperature;BMP_pressure;BME280_temperature;BME280_humidity;BME280_pressure;Samples;Min_cycle;Max_cycle;Signal;HPM_P1;HPM_P2
2022/06/23 00:01:26;;;;;;;53.30;50.55;;;;;;;;;;5056414;28;20114;-66
2022/06/23 00:03:56;;;;;;;51.47;48.42;;;;;;;;;;5055065;28;20033;-66
2022/06/23 00:06:26;;;;;;;;;;;;;;;;;;5056022;28;20502;-66
2022/06/23 00:08:52;;;;;;;40.67;38.53;;;;;;;;;;5056358;28;19934;-65
2022/06/23 00:11:24;;;;;;;30.13;28.45;;;;;;;;;;5056322;28;20043;-65
2022/06/23 00:13:51;;;;;;;31.95;29.42;;;;;;;;;;5054753;28;20104;-65
2022/06/23 00:16:27;;;;;;;40.53;38.40;;;;;;;;;;5055463;28;20122;-65
2022/06/23 00:18:53;;;;;;;47.85;45.40;;;;;;;;;;5050191;28;20039;-66
2022/06/23 00:21:29;;;;;;;44.15;41.83;;;;;;;;;;5052827;28;20032;-66
2022/06/23 00:23:59;;;;;;;48.55;46.05;;;;;;;;;;5054057;28;20037;-65
2022/06/23 00:26:28;;;;;;;38.80;36.72;;;;;;;;;;5055307;28;20110;-66
2022/06/23 00:28:56;;;;;;;40.95;38.85;;;;;;;;;;5053030;28;20191;-65
2022/06/23 00:31:42;;;;;;;36.83;34.63;;;;;;;;;;5053302;28;20493;-66
2022/06/23 00:34:31;;;;;;;30.42;28.67;;;;;;;;;;5054633;28;20032;-68
2022/06/23 00:37:11;;;;;;;29.83;28.13;;;;;;;;;;5053801;28;20072;-68
2022/06/23 00:39:40;;;;;;;24.38;22.48;;;;;;;;;;5055335;28;20021;-68
2022/06/23 00:42:24;;;;;;;26.55;25.10;;;;;;;;;;5056240;28;20161;-68
2022/06/23 00:45:01;;;;;;;31.77;30.10;;;;;;;;;;5053659;28;20119;-67
2022/06/23 00:47:38;;;;;;;34.13;32.30;;;;;;;;;;5053245;28;20033;-67
2022/06/23 00:50:20;;;;;;;36.28;34.38;;;;;;;;;;5058267;28;20048;-68
2022/06/23 00:52:52;;;;;;;39.15;37.00;;;;;;;;;;5052428;28;20040;-67
2022/06/23 00:55:34;;;;;;;44.10;41.78;;;;;;;;;;5054529;28;20154;-67
2022/06/23 00:58:14;;;;;;;42.22;40.05;;;;;;;;;;5056940;28;20029;-67
2022/06/23 01:00:42;;;;;;;46.67;44.27;;;;;;;;;;5058927;28;20198;-67
2022/06/23 01:03:07;;;;;;;49.95;47.40;;;;;;;;;;5058166;28;20285;-67
2022/06/23 01:05:40;;;;;;;50.42;47.88;;;;;;;;;;5062835;28;20115;-66
2022/06/23 01:08:31;;;;;;;56.85;53.97;;;;;;;;;;5060084;28;20028;-66
2022/06/23 01:11:27;;;;;;;66.70;63.28;;;;;;;;;;5058745;28;20482;-67
2022/06/23 01:14:07;;;;;;;67.28;63.90;;;;;;;;;;5059027;28;20045;-67
2022/06/23 01:16:42;;;;;;;69.45;65.85;;;;;;;;;;5056436;28;20114;-66
2022/06/23 01:19:30;;;;;;;54.00;51.25;;;;;;;;;;5059788;28;20068;-66
2022/06/23 01:22:00;;;;;;;57.05;54.15;;;;;;;;;;5058254;28;20475;-66
2022/06/23 01:24:42;;;;;;;47.08;44.60;;;;;;;;;;5059225;28;20028;-66
2022/06/23 01:27:53;;;;;;;54.88;52.08;;;;;;;;;;5058025;28;20032;-66
2022/06/23 01:30:20;;;;;;;39.20;37.15;;;;;;;;;;5055806;28;20033;-66
2022/06/23 01:33:17;;;;;;;46.90;44.50;;;;;;;;;;5060466;28;20115;-66
2022/06/23 01:36:00;;;;;;;41.03;38.90;;;;;;;;;;5048039;28;20044;-66
2022/06/23 01:38:46;;;;;;;43.92;41.58;;;;;;;;;;5058318;28;20032;-67
2022/06/23 01:41:20;;;;;;;38.25;36.25;;;;;;;;;;5054716;28;20716;-66
2022/06/23 01:43:58;;;;;;;34.45;32.63;;;;;;;;;;5058006;28;20032;-66
2022/06/23 01:46:31;;;;;;;33.47;31.73;;;;;;;;;;5059324;28;20043;-67
2022/06/23 01:49:02;;;;;;;47.67;45.13;;;;;;;;;;5038637;28;20048;-66
2022/06/23 01:51:32;;;;;;;42.70;40.45;;;;;;;;;;5056930;28;20036;-66
2022/06/23 01:54:07;;;;;;;62.28;58.97;;;;;;;;;;5055669;28;20086;-67
2022/06/23 01:56:43;;;;;;;51.90;49.22;;;;;;;;;;5059598;28;20479;-66
2022/06/23 01:59:40;;;;;;;59.88;56.28;;;;;;;;;;5056878;28;20487;-66
2022/06/23 02:02:32;;;;;;;58.80;55.78;;;;;;;;;;5059531;28;20040;-66
2022/06/23 02:05:16;;;;;;;54.47;51.67;;;;;;;;;;5054219;28;20033;-66
2022/06/23 02:07:41;;;;;;;52.30;49.50;;;;;;;;;;5054020;28;20025;-66
2022/06/23 02:10:21;;;;;;;52.92;50.17;;;;;;;;;;5057435;28;20048;-66
2022/06/23 02:12:53;;;;;;;50.08;47.30;;;;;;;;;;5059212;28;20093;-66
2022/06/23 02:15:50;;;;;;;52.17;49.53;;;;;;;;;;5057197;28;20078;-66
2022/06/23 02:18:33;;;;;;;47.72;45.33;;;;;;;;;;5030733;28;20561;-65
2022/06/23 02:21:02;;;;;;;38.35;36.35;;;;;;;;;;5059243;28;20449;-65
2022/06/23 02:23:28;;;;;;;43.50;41.28;;;;;;;;;;5058825;28;20618;-66
2022/06/23 02:26:03;;;;;;;39.13;36.95;;;;;;;;;;5054310;28;20037;-66
2022/06/23 02:28:42;;;;;;;34.10;32.33;;;;;;;;;;5055605;28;20470;-66
2022/06/23 02:31:49;;;;;;;34.92;33.10;;;;;;;;;;5057810;28;20847;-65
2022/06/23 02:34:23;;;;;;;36.03;34.13;;;;;;;;;;5057569;28;20374;-66
2022/06/23 02:37:02;;;;;;;32.15;30.42;;;;;;;;;;5057874;28;20025;-65
2022/06/23 02:39:41;;;;;;;35.53;33.63;;;;;;;;;;5056473;28;20036;-65
2022/06/23 02:42:24;;;;;;;44.13;41.83;;;;;;;;;;5056186;28;20503;-65
2022/06/23 02:45:17;;;;;;;36.83;34.85;;;;;;;;;;5055536;28;20045;-65
2022/06/23 02:48:07;;;;;;;39.90;37.85;;;;;;;;;;5055913;28;20123;-66
2022/06/23 02:51:13;;;;;;;32.65;30.77;;;;;;;;;;5054914;28;20041;-66
2022/06/23 02:53:57;;;;;;;36.05;34.17;;;;;;;;;;5052967;28;20037;-65
2022/06/23 02:56:38;;;;;;;31.42;29.73;;;;;;;;;;5055524;28;20059;-66
2022/06/23 02:59:10;;;;;;;37.17;35.17;;;;;;;;;;5057460;28;20100;-65
2022/06/23 03:02:00;;;;;;;34.13;32.33;;;;;;;;;;5055255;28;20082;-66
2022/06/23 03:04:32;;;;;;;29.98;28.35;;;;;;;;;;5056735;28;20032;-65
2022/06/23 03:07:11;;;;;;;28.35;26.65;;;;;;;;;;5055242;28;20038;-66
2022/06/23 03:09:40;;;;;;;34.88;33.08;;;;;;;;;;5057590;28;20080;-65
2022/06/23 03:12:25;;;;;;;33.75;31.98;;;;;;;;;;5057009;28;20056;-65
2022/06/23 03:15:13;;;;;;;30.52;28.80;;;;;;;;;;5053630;28;20036;-65
2022/06/23 03:17:49;;;;;;;30.15;28.45;;;;;;;;;;5054462;28;20044;-65
2022/06/23 03:20:44;;;;;;;41.92;39.63;;;;;;;;;;5071694;28;20032;-65
2022/06/23 03:24:02;;;;;;;29.73;28.13;;;;;;;;;;5054729;28;20040;-65
2022/06/23 03:26:42;;;;;;;28.50;27.00;;;;;;;;;;5021581;28;20056;-66
2022/06/23 03:29:16;;;;;;;;;;;;;;;;;;5055690;28;20332;-65
2022/06/23 03:32:01;;;;;;;31.23;29.35;;;;;;;;;;5055194;28;20266;-65
2022/06/23 03:34:32;;;;;;;39.25;37.17;;;;;;;;;;5055003;28;20041;-65
2022/06/23 03:37:00;;;;;;;;;;;;;;;;;;5055416;28;20044;-65
2022/06/23 03:42:15;;;;;;;22.55;21.27;;;;;;;;;;5054332;28;20031;-65
2022/06/23 03:44:50;;;;;;;27.42;25.90;;;;;;;;;;5055321;28;20037;-65
2022/06/23 03:47:51;;;;;;;17.45;16.38;;;;;;;;;;5052920;28;20036;-64
2022/06/23 03:50:33;;;;;;;20.17;19.08;;;;;;;;;;5049894;28;20056;-65
2022/06/23 03:53:11;;;;;;;21.90;20.70;;;;;;;;;;5053386;28;20051;-64
2022/06/23 03:55:42;;;;;;;20.80;19.50;;;;;;;;;;5059624;28;20083;-63
2022/06/23 03:58:10;;;;;;;36.03;34.13;;;;;;;;;;5052557;28;20029;-64
2022/06/23 04:00:43;;;;;;;28.38;26.85;;;;;;;;;;5060243;28;20123;-65
2022/06/23 04:03:19;;;;;;;24.17;22.73;;;;;;;;;;5053362;28;20033;-65
2022/06/23 04:06:11;;;;;;;32.03;30.33;;;;;;;;;;5054499;28;20123;-64
2022/06/23 04:08:45;;;;;;;21.30;20.10;;;;;;;;;;5056302;28;20036;-64
2022/06/23 04:14:03;;;;;;;23.30;21.75;;;;;;;;;;5057705;28;20123;-64
2022/06/23 04:16:32;;;;;;;23.85;22.52;;;;;;;;;;5054152;28;20398;-64
2022/06/23 04:18:58;;;;;;;25.92;24.52;;;;;;;;;;5057866;28;20051;-64
2022/06/23 04:21:27;;;;;;;22.52;21.25;;;;;;;;;;5055930;28;20510;-64
2022/06/23 04:23:56;;;;;;;26.35;24.75;;;;;;;;;;5054404;28;20049;-64
2022/06/23 04:26:27;;;;;;;20.70;19.50;;;;;;;;;;5052759;28;20029;-64
2022/06/23 04:29:16;;;;;;;26.67;25.23;;;;;;;;;;5052865;28;20039;-65
2022/06/23 04:32:05;;;;;;;25.40;24.00;;;;;;;;;;5057632;28;20029;-64
2022/06/23 04:34:36;;;;;;;26.83;25.05;;;;;;;;;;5059564;28;20036;-63
2022/06/23 04:37:02;;;;;;;26.13;24.58;;;;;;;;;;5060526;28;20039;-64
2022/06/23 04:39:43;;;;;;;22.38;20.70;;;;;;;;;;5061304;28;20032;-64
2022/06/23 04:42:24;;;;;;;27.60;26.08;;;;;;;;;;5060496;28;20105;-63
2022/06/23 04:44:55;;;;;;;25.45;24.05;;;;;;;;;;5057533;28;20594;-63
2022/06/23 04:47:24;;;;;;;23.90;22.60;;;;;;;;;;5057475;28;20040;-64
2022/06/23 04:49:57;;;;;;;27.00;25.53;;;;;;;;;;5058192;28;20032;-64
2022/06/23 04:52:51;;;;;;;22.77;21.50;;;;;;;;;;5058927;28;20044;-63
2022/06/23 04:55:21;;;;;;;24.10;22.77;;;;;;;;;;5054113;28;20052;-63
2022/06/23 04:57:51;;;;;;;25.10;23.58;;;;;;;;;;5059388;28;20052;-64
2022/06/23 05:00:22;;;;;;;37.00;34.97;;;;;;;;;;5056186;28;20132;-63
2022/06/23 05:02:54;;;;;;;39.92;37.88;;;;;;;;;;5059541;28;20529;-64
2022/06/23 05:05:23;;;;;;;42.28;40.08;;;;;;;;;;5057259;28;20040;-63
2022/06/23 05:08:06;;;;;;;45.00;42.63;;;;;;;;;;5057241;28;20037;-64
2022/06/23 05:10:37;;;;;;;49.65;47.08;;;;;;;;;;5058781;28;20506;-64
2022/06/23 05:13:07;;;;;;;38.22;36.20;;;;;;;;;;5056928;28;20041;-64
2022/06/23 05:16:05;;;;;;;49.85;47.25;;;;;;;;;;5055250;28;20124;-64
2022/06/23 05:18:33;;;;;;;48.97;46.42;;;;;;;;;;5057358;28;20037;-63
2022/06/23 05:21:06;;;;;;;48.97;46.47;;;;;;;;;;5057811;28;20040;-63
2022/06/23 05:23:59;;;;;;;54.83;51.85;;;;;;;;;;5056357;28;20075;-63
2022/06/23 05:26:32;;;;;;;54.08;51.17;;;;;;;;;;5057486;28;20033;-63
2022/06/23 05:29:17;;;;;;;64.93;61.60;;;;;;;;;;5057262;28;20036;-63
2022/06/23 05:31:45;;;;;;;63.03;59.80;;;;;;;;;;5056694;28;20037;-63
2022/06/23 05:34:22;;;;;;;58.88;55.90;;;;;;;;;;5060334;28;20259;-63
2022/06/23 05:37:17;;;;;;;52.47;49.63;;;;;;;;;;5057341;28;20042;-63
2022/06/23 05:39:48;;;;;;;87.28;82.82;;;;;;;;;;5056486;28;20064;-63
2022/06/23 05:42:18;;;;;;;96.20;91.43;;;;;;;;;;5059476;28;20116;-63
2022/06/23 05:45:01;;;;;;;70.97;67.37;;;;;;;;;;5057733;28;20025;-62
2022/06/23 05:47:30;;;;;;;59.90;56.70;;;;;;;;;;5058781;28;20035;-62
2022/06/23 05:49:59;;;;;;;57.03;54.05;;;;;;;;;;5056532;28;20033;-63
2022/06/23 05:52:32;;;;;;;60.20;57.15;;;;;;;;;;5055172;28;20595;-63
2022/06/23 05:55:03;;;;;;;56.83;53.95;;;;;;;;;;5057241;28;20476;-62
2022/06/23 05:57:47;;;;;;;81.90;77.72;;;;;;;;;;5055504;28;20029;-63
2022/06/23 06:00:29;;;;;;;81.35;77.30;;;;;;;;;;5057235;28;20060;-62
2022/06/23 06:03:11;;;;;;;77.70;73.75;;;;;;;;;;5058399;28;20089;-63
2022/06/23 06:05:40;;;;;;;65.13;61.80;;;;;;;;;;5056961;28;20489;-63
2022/06/23 06:08:14;;;;;;;51.88;49.20;;;;;;;;;;5056167;28;20040;-62
2022/06/23 06:10:40;;;;;;;40.00;37.40;;;;;;;;;;5057090;28;20036;-62
2022/06/23 06:13:14;;;;;;;56.28;53.35;;;;;;;;;;5057703;28;20036;-62
2022/06/23 06:15:46;;;;;;;52.63;49.95;;;;;;;;;;5056006;28;20400;-62
2022/06/23 06:18:23;;;;;;;49.13;46.60;;;;;;;;;;5058111;28;20450;-62
2022/06/23 06:20:52;;;;;;;50.05;47.45;;;;;;;;;;5056297;28;20128;-62
2022/06/23 06:23:28;;;;;;;50.58;47.97;;;;;;;;;;5053429;28;20036;-62
2022/06/23 06:25:54;;;;;;;61.05;57.65;;;;;;;;;;5059356;28;20028;-62
2022/06/23 06:28:22;;;;;;;48.92;46.35;;;;;;;;;;5054528;28;20028;-61
2022/06/23 06:30:54;;;;;;;42.22;40.03;;;;;;;;;;5057999;28;20086;-63
2022/06/23 06:33:33;;;;;;;39.22;37.15;;;;;;;;;;5057279;28;20094;-62
2022/06/23 06:35:59;;;;;;;46.65;43.95;;;;;;;;;;5056475;28;20472;-62
2022/06/23 06:38:27;;;;;;;34.90;33.05;;;;;;;;;;5055153;28;20033;-63
2022/06/23 06:40:56;;;;;;;31.08;29.45;;;;;;;;;;5055657;28;20032;-62
2022/06/23 06:43:25;;;;;;;29.30;27.70;;;;;;;;;;5056716;28;20029;-62
2022/06/23 06:45:51;;;;;;;37.30;35.30;;;;;;;;;;5056137;28;20059;-62
2022/06/23 06:48:24;;;;;;;31.42;29.63;;;;;;;;;;5056703;28;20103;-62
2022/06/23 06:50:57;;;;;;;26.58;24.75;;;;;;;;;;5053028;28;20067;-62
2022/06/23 06:53:43;;;;;;;23.02;21.73;;;;;;;;;;5057016;28;20466;-62
2022/06/23 06:56:15;;;;;;;20.55;19.35;;;;;;;;;;5056185;28;20028;-62
2022/06/23 06:58:48;;;;;;;20.02;18.83;;;;;;;;;;5053274;28;20123;-63
2022/06/23 07:01:20;;;;;;;16.55;15.55;;;;;;;;;;5055171;28;20614;-62
2022/06/23 07:03:48;;;;;;;13.55;12.65;;;;;;;;;;5058776;28;20141;-62
2022/06/23 07:06:33;;;;;;;16.73;15.73;;;;;;;;;;5057015;28;20127;-62
2022/06/23 07:09:22;;;;;;;15.07;14.18;;;;;;;;;;5058536;28;20040;-62
2022/06/23 07:11:53;;;;;;;15.40;14.40;;;;;;;;;;5055302;28;20040;-62
2022/06/23 07:14:37;;;;;;;14.45;13.55;;;;;;;;;;5054136;28;20033;-62
2022/06/23 07:17:30;;;;;;;13.73;12.82;;;;;;;;;;5055161;28;20335;-62
2022/06/23 07:20:05;;;;;;;16.38;15.38;;;;;;;;;;5054937;28;20040;-63
2022/06/23 07:22:36;;;;;;;15.00;14.10;;;;;;;;;;5055828;28;20067;-63
2022/06/23 07:25:09;;;;;;;15.40;14.50;;;;;;;;;;5055984;28;20531;-62
2022/06/23 07:27:42;;;;;;;17.85;16.85;;;;;;;;;;5055026;28;20649;-63
2022/06/23 07:30:18;;;;;;;16.38;15.18;;;;;;;;;;5054043;28;20413;-63
2022/06/23 07:33:03;;;;;;;16.08;15.07;;;;;;;;;;5054020;28;20029;-63
2022/06/23 07:35:33;;;;;;;15.13;14.23;;;;;;;;;;5056523;28;20392;-64
2022/06/23 07:38:19;;;;;;;15.98;15.00;;;;;;;;;;5054399;28;20462;-63
2022/06/23 07:40:59;;;;;;;14.43;13.57;;;;;;;;;;5056899;28;20868;-63
2022/06/23 07:43:39;;;;;;;18.80;17.60;;;;;;;;;;5052792;28;20028;-63
2022/06/23 07:46:05;;;;;;;24.02;22.65;;;;;;;;;;5056174;28;20143;-63
2022/06/23 07:48:33;;;;;;;17.88;16.88;;;;;;;;;;5052954;28;20489;-64
2022/06/23 07:51:01;;;;;;;25.75;24.17;;;;;;;;;;5055726;28;20029;-63
2022/06/23 07:53:33;;;;;;;20.33;19.20;;;;;;;;;;5054855;28;20039;-63
2022/06/23 07:56:00;;;;;;;28.38;26.83;;;;;;;;;;5055311;28;20036;-64
2022/06/23 07:58:29;;;;;;;32.88;31.08;;;;;;;;;;5055683;28;20104;-64
2022/06/23 08:01:09;;;;;;;40.13;38.03;;;;;;;;;;5057324;28;20093;-64
2022/06/23 08:03:42;;;;;;;43.38;41.15;;;;;;;;;;5054937;28;20099;-64
2022/06/23 08:06:12;;;;;;;45.47;43.17;;;;;;;;;;5057549;28;20119;-64
2022/06/23 08:08:39;;;;;;;47.00;44.50;;;;;;;;;;5053727;28;20043;-64
2022/06/23 08:14:22;;;;;;;47.25;44.75;;;;;;;;;;5016147;28;20037;-65
2022/06/23 08:16:50;;;;;;;53.88;51.08;;;;;;;;;;5000902;28;20045;-65
2022/06/23 08:19:29;;;;;;;59.13;56.15;;;;;;;;;;5038989;28;20178;-63
2022/06/23 08:22:04;;;;;;;56.30;53.40;;;;;;;;;;5054141;28;20454;-64
2022/06/23 08:24:32;;;;;;;64.28;60.85;;;;;;;;;;5054422;28;20036;-65
2022/06/23 08:27:05;;;;;;;68.25;64.85;;;;;;;;;;5054664;28;20477;-66
2022/06/23 08:29:38;;;;;;;67.40;64.03;;;;;;;;;;5057864;28;20382;-65
2022/06/23 08:32:04;;;;;;;66.70;63.22;;;;;;;;;;5053998;28;20029;-64
2022/06/23 08:34:32;;;;;;;64.90;61.35;;;;;;;;;;5055554;28;20362;-64
2022/06/23 08:37:03;;;;;;;67.57;63.85;;;;;;;;;;5053714;28;20098;-64
2022/06/23 08:39:39;;;;;;;59.95;56.90;;;;;;;;;;5054456;28;20033;-64
2022/06/23 08:42:25;;;;;;;63.00;59.78;;;;;;;;;;5055930;28;20124;-65
2022/06/23 08:45:01;;;;;;;58.15;55.20;;;;;;;;;;5054480;28;20045;-64
2022/06/23 08:47:57;;;;;;;64.05;60.50;;;;;;;;;;5057148;28;20070;-64
2022/06/23 08:50:35;;;;;;;66.40;62.90;;;;;;;;;;5053930;28;20577;-64
2022/06/23 08:53:17;;;;;;;57.85;54.85;;;;;;;;;;5053130;28;20040;-64
2022/06/23 08:56:03;;;;;;;73.20;69.50;;;;;;;;;;5052410;28;20087;-65
2022/06/23 08:58:38;;;;;;;55.63;52.03;;;;;;;;;;5056263;28;20033;-65
2022/06/23 09:01:36;;;;;;;64.28;60.97;;;;;;;;;;5054328;28;20059;-64
2022/06/23 09:04:19;;;;;;;61.15;58.05;;;;;;;;;;5055391;28;20041;-64
2022/06/23 09:06:56;;;;;;;69.18;65.68;;;;;;;;;;5052856;28;20098;-64
2022/06/23 09:09:49;;;;;;;58.17;55.08;;;;;;;;;;5055204;28;20035;-65
2022/06/23 09:12:28;;;;;;;65.78;62.47;;;;;;;;;;5055628;28;20037;-64
2022/06/23 09:15:07;;;;;;;63.83;60.58;;;;;;;;;;5050863;28;20128;-63
2022/06/23 09:17:54;;;;;;;53.88;50.95;;;;;;;;;;5057101;28;20033;-63
2022/06/23 09:20:31;;;;;;;53.78;51.05;;;;;;;;;;5057849;28;20036;-63
2022/06/23 09:23:18;;;;;;;53.78;51.08;;;;;;;;;;5055189;28;20603;-65
2022/06/23 09:26:05;;;;;;;57.28;54.38;;;;;;;;;;5052196;28;20116;-65
2022/06/23 09:28:58;;;;;;;59.22;56.13;;;;;;;;;;5055381;28;20099;-64
2022/06/23 09:31:58;;;;;;;47.92;45.47;;;;;;;;;;5053828;28;20048;-64
2022/06/23 09:34:30;;;;;;;46.60;44.17;;;;;;;;;;5053393;28;20047;-63
2022/06/23 09:37:37;;;;;;;46.47;44.08;;;;;;;;;;5056260;28;20124;-63
2022/06/23 09:40:10;;;;;;;52.00;49.25;;;;;;;;;;5059273;28;20044;-64
2022/06/23 09:43:21;;;;;;;55.38;52.58;;;;;;;;;;5059297;28;20039;-64
2022/06/23 09:46:28;;;;;;;64.60;61.35;;;;;;;;;;5055608;28;20033;-62
2022/06/23 09:49:18;;;;;;;56.70;53.75;;;;;;;;;;5060299;28;20029;-65
2022/06/23 09:52:02;;;;;;;;;;;;;;;;;;5055623;28;20040;-64
2022/06/23 09:54:49;;;;;;;54.50;51.70;;;;;;;;;;5058642;28;19923;-67
2022/06/23 09:57:36;;;;;;;74.32;70.63;;;;;;;;;;5059608;28;20025;-65
2022/06/23 10:00:17;;;;;;;70.32;66.78;;;;;;;;;;5056555;28;20112;-65
2022/06/23 10:02:42;;;;;;;68.32;64.93;;;;;;;;;;5058183;28;20417;-65
2022/06/23 10:05:26;;;;;;;96.57;91.72;;;;;;;;;;5059109;28;20028;-65
2022/06/23 10:08:21;;;;;;;62.92;59.78;;;;;;;;;;5057801;28;20068;-65
2022/06/23 10:10:58;;;;;;;71.10;67.53;;;;;;;;;;5058232;28;20055;-64
2022/06/23 10:14:01;;;;;;;110.88;105.30;;;;;;;;;;5057282;28;20028;-64
2022/06/23 10:16:54;;;;;;;67.00;63.58;;;;;;;;;;5056046;28;20056;-64
2022/06/23 10:19:29;;;;;;;58.45;55.45;;;;;;;;;;5057535;28;20021;-64
2022/06/23 10:22:19;;;;;;;140.50;133.52;;;;;;;;;;5056179;28;20504;-63
2022/06/23 10:24:55;;;;;;;210.73;200.43;;;;;;;;;;5057387;28;20542;-63
2022/06/23 10:27:57;;;;;;;195.98;186.35;;;;;;;;;;5054879;28;20370;-65
2022/06/23 10:30:45;;;;;;;214.30;203.63;;;;;;;;;;5055598;28;20044;-63
2022/06/23 10:33:36;;;;;;;227.18;216.00;;;;;;;;;;5061275;28;20667;-63
2022/06/23 10:36:27;;;;;;;215.93;205.23;;;;;;;;;;5054556;28;20655;-65
2022/06/23 10:39:10;;;;;;;144.77;136.80;;;;;;;;;;5056656;28;20102;-64
2022/06/23 10:41:50;;;;;;;152.68;145.02;;;;;;;;;;5059048;28;20069;-64
2022/06/23 10:44:18;;;;;;;;;;;;;;;;;;5057278;28;20102;-62
2022/06/23 10:47:05;;;;;;;142.20;135.13;;;;;;;;;;5057219;28;19917;-62
2022/06/23 10:49:37;;;;;;;170.75;162.27;;;;;;;;;;5056222;28;20040;-62
2022/06/23 10:52:39;;;;;;;161.43;153.38;;;;;;;;;;5054760;28;20067;-64
2022/06/23 10:55:32;;;;;;;203.82;193.77;;;;;;;;;;5052826;28;20114;-63
2022/06/23 10:58:14;;;;;;;199.48;189.63;;;;;;;;;;5054169;28;20128;-65
2022/06/23 11:00:52;;;;;;;285.17;270.83;;;;;;;;;;5054125;28;20048;-66
2022/06/23 11:03:48;;;;;;;239.05;227.15;;;;;;;;;;5053447;28;20033;-65
2022/06/23 11:06:26;;;;;;;250.18;237.85;;;;;;;;;;5073218;28;20024;-64
2022/06/23 11:09:00;;;;;;;240.32;228.43;;;;;;;;;;5056415;28;20210;-63
2022/06/23 11:11:52;;;;;;;289.13;274.65;;;;;;;;;;5053828;28;20177;-63
2022/06/23 11:14:33;;;;;;;252.65;240.18;;;;;;;;;;5047386;28;20045;-65
2022/06/23 11:17:15;;;;;;;265.30;252.27;;;;;;;;;;5057335;28;20117;-64
2022/06/23 11:19:52;;;;;;;256.15;243.48;;;;;;;;;;5056150;28;20818;-63
2022/06/23 11:22:42;;;;;;;243.77;231.75;;;;;;;;;;5056641;28;20116;-69
2022/06/23 11:25:19;;;;;;;235.05;223.50;;;;;;;;;;5053005;28;20064;-65
2022/06/23 11:28:04;;;;;;;279.60;265.50;;;;;;;;;;5054714;28;20465;-65
2022/06/23 11:30:44;;;;;;;254.40;241.85;;;;;;;;;;5056501;28;20033;-66
2022/06/23 11:33:26;;;;;;;221.35;210.48;;;;;;;;;;5053579;28;20454;-64
2022/06/23 11:36:08;;;;;;;228.15;216.90;;;;;;;;;;5055526;28;20127;-65
2022/06/23 11:38:36;;;;;;;240.18;228.35;;;;;;;;;;5058119;28;20420;-64
2022/06/23 11:41:12;;;;;;;144.40;137.18;;;;;;;;;;5052048;28;20369;-64
2022/06/23 11:43:57;;;;;;;241.27;229.45;;;;;;;;;;5051880;28;20837;-64
2022/06/23 11:46:29;;;;;;;267.58;254.35;;;;;;;;;;5053394;28;20033;-64
2022/06/23 11:49:07;;;;;;;251.50;238.88;;;;;;;;;;5053928;28;20127;-65
2022/06/23 11:51:39;;;;;;;206.57;196.40;;;;;;;;;;5053668;28;20036;-64
2022/06/23 11:54:13;;;;;;;207.38;197.13;;;;;;;;;;5056827;28;20529;-64
2022/06/23 11:57:12;;;;;;;232.27;220.40;;;;;;;;;;5054073;28;20038;-64
2022/06/23 12:00:03;;;;;;;200.63;190.65;;;;;;;;;;5057825;28;20039;-65
2022/06/23 12:02:29;;;;;;;222.93;211.82;;;;;;;;;;5056576;28;20111;-65
2022/06/23 12:05:23;;;;;;;240.20;228.35;;;;;;;;;;5057263;28;20117;-64
2022/06/23 12:07:58;;;;;;;198.90;189.00;;;;;;;;;;5051633;28;20040;-66
2022/06/23 12:10:29;;;;;;;231.65;220.27;;;;;;;;;;5051776;28;20053;-65
2022/06/23 12:12:58;;;;;;;210.15;199.75;;;;;;;;;;5054327;28;20033;-66
2022/06/23 12:15:28;;;;;;;207.90;197.63;;;;;;;;;;5055112;28;20557;-65
2022/06/23 12:18:00;;;;;;;208.50;198.05;;;;;;;;;;5054080;28;20086;-65
2022/06/23 12:20:40;;;;;;;195.73;186.13;;;;;;;;;;5055088;28;20028;-64
2022/06/23 12:23:30;;;;;;;274.70;260.92;;;;;;;;;;5053743;28;20086;-65
2022/06/23 12:26:20;;;;;;;169.55;161.15;;;;;;;;;;5055450;28;20033;-64
2022/06/23 12:29:08;;;;;;;171.63;163.05;;;;;;;;;;5054190;28;20032;-65
2022/06/23 12:32:16;;;;;;;211.32;200.93;;;;;;;;;;5057589;28;20150;-66
2022/06/23 12:34:56;;;;;;;219.50;208.80;;;;;;;;;;4992874;28;20121;-65
2022/06/23 12:37:33;;;;;;;202.95;192.95;;;;;;;;;;5050732;28;20103;-65
2022/06/23 12:40:07;;;;;;;214.40;203.90;;;;;;;;;;5056295;28;20033;-65
2022/06/23 12:42:46;;;;;;;146.77;139.50;;;;;;;;;;5056964;28;20518;-66
2022/06/23 12:45:29;;;;;;;128.83;122.40;;;;;;;;;;5054546;28;20492;-66
2022/06/23 12:48:31;;;;;;;160.73;152.75;;;;;;;;;;5054513;28;20044;-65
2022/06/23 12:51:25;;;;;;;159.52;151.63;;;;;;;;;;5055771;28;20063;-65
2022/06/23 12:54:05;;;;;;;138.05;131.23;;;;;;;;;;5056361;28;20087;-66
2022/06/23 12:56:52;;;;;;;123.93;117.80;;;;;;;;;;5055169;28;20039;-65
2022/06/23 12:59:23;;;;;;;125.07;118.95;;;;;;;;;;5059520;28;20025;-66
2022/06/23 13:01:57;;;;;;;120.38;114.25;;;;;;;;;;5057205;28;20082;-66
2022/06/23 13:04:35;;;;;;;165.40;157.20;;;;;;;;;;5058098;28;20450;-66
2022/06/23 13:07:07;;;;;;;121.13;114.93;;;;;;;;;;5057068;28;20045;-65
2022/06/23 13:09:42;;;;;;;138.48;131.57;;;;;;;;;;5057181;28;20121;-66
2022/06/23 13:12:19;;;;;;;172.50;163.98;;;;;;;;;;5057824;28;20029;-65
2022/06/23 13:14:51;;;;;;;132.85;126.28;;;;;;;;;;5058794;28;20437;-65
2022/06/23 13:17:28;;;;;;;132.52;125.93;;;;;;;;;;5056080;28;20041;-65
2022/06/23 13:20:20;;;;;;;130.13;123.68;;;;;;;;;;5056888;28;20039;-67
2022/06/23 13:22:49;;;;;;;121.35;115.40;;;;;;;;;;5047828;28;20045;-66
2022/06/23 13:25:20;;;;;;;120.20;114.20;;;;;;;;;;5053906;28;20028;-65
2022/06/23 13:27:49;;;;;;;133.18;126.60;;;;;;;;;;5054886;28;20061;-66
2022/06/23 13:30:18;;;;;;;162.13;154.15;;;;;;;;;;5054440;28;20041;-66
2022/06/23 13:32:58;;;;;;;236.13;224.35;;;;;;;;;;5058287;28;20825;-66
2022/06/23 13:35:33;;;;;;;227.05;215.93;;;;;;;;;;5056301;28;20052;-65
2022/06/23 13:38:32;;;;;;;145.20;138.05;;;;;;;;;;5057911;28;20044;-65
2022/06/23 13:41:06;;;;;;;;;;;;;;;;;;5057778;28;20474;-66
2022/06/23 13:43:48;;;;;;;110.85;105.32;;;;;;;;;;5052912;28;19966;-66
2022/06/23 13:46:31;;;;;;;111.07;105.60;;;;;;;;;;5054349;28;20041;-65
2022/06/23 13:49:18;;;;;;;154.55;146.90;;;;;;;;;;5053641;28;20033;-65
2022/06/23 13:51:50;;;;;;;132.30;125.63;;;;;;;;;;5054663;28;20123;-65
2022/06/23 13:54:38;;;;;;;121.43;115.32;;;;;;;;;;5056322;28;20043;-67
2022/06/23 13:57:15;;;;;;;122.97;116.90;;;;;;;;;;5056792;28;20023;-67
2022/06/23 13:59:58;;;;;;;131.93;125.40;;;;;;;;;;5058064;28;20551;-67
2022/06/23 14:02:36;;;;;;;140.75;133.52;;;;;;;;;;5056771;28;20024;-67
2022/06/23 14:05:29;;;;;;;140.93;133.93;;;;;;;;;;5054297;28;20032;-67
2022/06/23 14:08:00;;;;;;;134.75;128.00;;;;;;;;;;5055652;28;20020;-67
2022/06/23 14:10:43;;;;;;;126.68;120.43;;;;;;;;;;5053856;28;20041;-67
2022/06/23 14:13:20;;;;;;;121.88;115.90;;;;;;;;;;5052507;28;20059;-67
2022/06/23 14:16:04;;;;;;;127.75;121.40;;;;;;;;;;5052610;28;20094;-66
2022/06/23 14:18:47;;;;;;;180.88;172.00;;;;;;;;;;5052994;28;20025;-67
2022/06/23 14:21:30;;;;;;;122.95;116.90;;;;;;;;;;5054511;28;20119;-66
2022/06/23 14:24:04;;;;;;;167.60;159.27;;;;;;;;;;5052435;28;20621;-66
2022/06/23 14:26:51;;;;;;;138.52;131.70;;;;;;;;;;5054199;28;20040;-66
2022/06/23 14:29:25;;;;;;;145.05;137.85;;;;;;;;;;5052362;28;20047;-66
2022/06/23 14:32:13;;;;;;;133.80;127.20;;;;;;;;;;5052216;28;20363;-66
2022/06/23 14:34:46;;;;;;;140.82;133.88;;;;;;;;;;5056383;28;20381;-66
2022/06/23 14:37:28;;;;;;;239.13;227.52;;;;;;;;;;5056116;28;20028;-66
2022/06/23 14:40:11;;;;;;;219.95;209.20;;;;;;;;;;5056312;28;20031;-66
2022/06/23 14:43:02;;;;;;;137.85;131.02;;;;;;;;;;5059175;28;20430;-66
2022/06/23 14:46:09;;;;;;;178.20;169.35;;;;;;;;;;5054551;28;20040;-66
2022/06/23 14:48:34;;;;;;;136.85;130.15;;;;;;;;;;5055558;28;20086;-66
2022/06/23 14:51:15;;;;;;;119.72;113.72;;;;;;;;;;5053297;28;20037;-65
2022/06/23 14:54:05;;;;;;;176.18;167.43;;;;;;;;;;5051831;28;20427;-66
2022/06/23 14:56:43;;;;;;;;;;;;;;;;;;5051798;28;20144;-67
2022/06/23 14:59:33;;;;;;;146.25;139.05;;;;;;;;;;5052677;28;19924;-67
2022/06/23 15:02:15;;;;;;;192.27;182.85;;;;;;;;;;5051448;28;20056;-65
2022/06/23 15:05:10;;;;;;;197.80;188.20;;;;;;;;;;5051197;28;20556;-66
2022/06/23 15:07:43;;;;;;;213.48;203.07;;;;;;;;;;5053700;28;20028;-66
2022/06/23 15:10:35;;;;;;;154.65;147.00;;;;;;;;;;5052298;28;20061;-66
2022/06/23 15:13:13;;;;;;;189.18;179.77;;;;;;;;;;5050519;28;20530;-65
2022/06/23 15:15:55;;;;;;;204.05;194.07;;;;;;;;;;5052888;28;20363;-65
2022/06/23 15:18:25;;;;;;;225.07;214.10;;;;;;;;;;5052350;28;20032;-65
2022/06/23 15:24:31;;;;;;;248.70;236.55;;;;;;;;;;5055799;28;20032;-65
2022/06/23 15:27:14;;;;;;;245.35;233.35;;;;;;;;;;5024632;28;20121;-65
2022/06/23 15:30:25;;;;;;;245.77;233.82;;;;;;;;;;5053197;28;20048;-65
2022/06/23 15:33:04;;;;;;;184.85;175.82;;;;;;;;;;5050347;28;20032;-64